Time;durP1;ratioP1;P1;durP2;ratioP2;P2;SDS_P1;SDS_P2;PMS_P1;PMS_P2;Temp;Humidity;BMP_temperature;BMP_pressure;BME280_temperature;BME280_humidity;BME280_pressure;Samples;Min_cycle;Max_cycle;Signal;HPM_P1;HPM_P2
2022/08/09 00:00:09;;;;;;;3.40;0.70;;;24.00;56.40;;;;;;4953855;28;20110;-94
2022/08/09 00:02:35;;;;;;;5.38;0.90;;;23.90;56.20;;;;;;4971278;28;20022;-94
2022/08/09 00:05:01;;;;;;;3.70;1.10;;;23.90;56.10;;;;;;4954027;28;20027;-94
2022/08/09 00:07:27;;;;;;;2.22;0.93;;;23.90;56.90;;;;;;4954260;28;20226;-94
2022/08/09 00:09:53;;;;;;;3.55;0.98;;;23.80;56.80;;;;;;4953712;28;20549;-94
2022/08/09 00:12:18;;;;;;;2.95;0.90;;;23.80;56.80;;;;;;4954515;28;20023;-94
2022/08/09 00:14:44;;;;;;;2.92;0.90;;;23.70;56.40;;;;;;4969760;28;20126;-94
2022/08/09 00:17:10;;;;;;;4.20;1.10;;;23.60;56.50;;;;;;4953985;28;20019;-94
2022/08/09 00:19:36;;;;;;;4.28;0.93;;;23.60;56.50;;;;;;4963532;28;20126;-95
2022/08/09 00:22:07;;;;;;;3.20;0.93;;;23.60;56.80;;;;;;4971534;28;20106;-94
2022/08/09 00:24:33;;;;;;;5.63;1.00;;;23.60;56.80;;;;;;4974031;28;20030;-95
2022/08/09 00:27:00;;;;;;;2.97;1.00;;;23.50;56.70;;;;;;4957556;28;20023;-95
2022/08/09 00:29:26;;;;;;;2.88;1.08;;;23.50;56.90;;;;;;4960441;28;20034;-93
2022/08/09 00:31:55;;;;;;;3.70;0.80;;;23.50;57.30;;;;;;4958528;28;20027;-94
2022/08/09 00:34:21;;;;;;;4.82;1.10;;;23.40;57.30;;;;;;4957628;28;20054;-95
2022/08/09 00:36:49;;;;;;;1.80;1.10;;;23.40;57.10;;;;;;4966356;28;20085;-95
2022/08/09 00:39:16;;;;;;;2.65;1.10;;;23.30;57.40;;;;;;4960539;28;20472;-94
2022/08/09 00:41:45;;;;;;;5.20;1.10;;;23.30;57.30;;;;;;4963021;28;20031;-95
2022/08/09 00:44:11;;;;;;;3.88;0.98;;;23.30;57.50;;;;;;4973222;28;20081;-94
2022/08/09 00:46:40;;;;;;;4.28;1.02;;;23.20;57.40;;;;;;4957414;28;20031;-95
2022/08/09 00:49:08;;;;;;;3.70;1.10;;;23.20;57.50;;;;;;4972814;28;20203;-94
2022/08/09 00:51:34;;;;;;;5.68;1.20;;;23.20;57.20;;;;;;4957126;28;20175;-94
2022/08/09 00:54:00;;;;;;;3.88;1.08;;;23.20;57.40;;;;;;4966149;28;20034;-94
2022/08/09 00:56:29;;;;;;;1.92;0.90;;;23.20;57.50;;;;;;4957405;28;20507;-95
2022/08/09 00:58:56;;;;;;;3.28;1.00;;;23.20;57.50;;;;;;4967302;28;20534;-94
2022/08/09 01:01:31;;;;;;;3.22;1.00;;;23.10;57.30;;;;;;4959483;28;20052;-94
2022/08/09 01:04:07;;;;;;;1.73;0.98;;;23.10;57.60;;;;;;4957128;28;20512;-94
2022/08/09 01:06:43;;;;;;;5.05;0.95;;;23.00;57.90;;;;;;4956900;28;20114;-94
2022/08/09 01:09:11;;;;;;;8.93;1.25;;;23.10;57.90;;;;;;4956448;28;20034;-94
2022/08/09 01:12:02;;;;;;;2.28;1.52;;;23.00;57.90;;;;;;4972705;28;20031;-93
2022/08/09 01:15:12;;;;;;;3.75;1.23;;;23.00;58.00;;;;;;4973001;28;20031;-94
2022/08/09 01:17:50;;;;;;;5.72;1.27;;;22.90;58.10;;;;;;4951979;28;20589;-93
2022/08/09 01:20:46;;;;;;;3.00;1.00;;;22.90;58.00;;;;;;4956739;28;20023;-95
2022/08/09 01:23:20;;;;;;;1.52;1.00;;;22.80;58.00;;;;;;4968602;28;20117;-93
2022/08/09 01:26:01;;;;;;;;;;;22.80;57.80;;;;;;4973184;28;20058;-94
2022/08/09 01:28:29;;;;;;;3.22;1.10;;;22.80;57.90;;;;;;4958359;28;19906;-95
2022/08/09 01:30:58;;;;;;;2.08;0.90;;;22.80;58.10;;;;;;4956677;28;20019;-94
2022/08/09 01:33:28;;;;;;;1.60;1.10;;;22.80;58.00;;;;;;4966191;28;20050;-93
2022/08/09 01:36:04;;;;;;;3.42;1.42;;;22.80;57.90;;;;;;4972485;28;20030;-93
2022/08/09 01:38:35;;;;;;;5.10;1.05;;;22.80;58.30;;;;;;4956461;28;20030;-93
2022/08/09 01:41:14;;;;;;;3.65;1.35;;;22.80;57.90;;;;;;4971329;28;20023;-92
2022/08/09 01:43:48;;;;;;;10.35;1.27;;;22.70;58.10;;;;;;4989359;28;20015;-94
2022/08/09 01:46:23;;;;;;;1.67;1.00;;;22.70;58.50;;;;;;4981097;28;20007;-93
2022/08/09 01:48:51;;;;;;;12.85;1.60;;;22.60;58.40;;;;;;4971507;28;20065;-93
2022/08/09 01:51:19;;;;;;;1.92;1.20;;;22.60;58.40;;;;;;4956043;28;20550;-94
2022/08/09 01:53:51;;;;;;;4.25;1.20;;;22.60;58.40;;;;;;4956283;28;20066;-94
2022/08/09 01:56:18;;;;;;;7.85;1.20;;;22.50;58.60;;;;;;4972123;28;20023;-93
2022/08/09 01:58:45;;;;;;;1.75;1.10;;;22.50;58.80;;;;;;4959814;28;20050;-93
2022/08/09 02:01:14;;;;;;;3.88;1.20;;;22.50;58.70;;;;;;4973314;28;20293;-93
2022/08/09 02:03:41;;;;;;;3.08;1.13;;;22.50;58.40;;;;;;4955872;28;20030;-92
2022/08/09 02:06:09;;;;;;;4.30;1.50;;;22.50;58.70;;;;;;4955995;28;20024;-94
2022/08/09 02:08:41;;;;;;;4.03;1.50;;;22.50;58.50;;;;;;4972875;28;20062;-92
2022/08/09 02:11:08;;;;;;;3.17;1.00;;;22.50;58.80;;;;;;4972171;28;20431;-93
2022/08/09 02:13:39;;;;;;;5.72;1.02;;;22.40;58.60;;;;;;4972684;28;20534;-92
2022/08/09 02:16:08;;;;;;;2.17;1.08;;;22.40;58.50;;;;;;4972753;28;20030;-92
2022/08/09 02:18:36;;;;;;;2.95;1.10;;;22.30;59.00;;;;;;4955635;28;20094;-92
2022/08/09 02:21:09;;;;;;;2.65;1.30;;;22.30;58.90;;;;;;4955643;28;20023;-93
2022/08/09 02:23:40;;;;;;;6.18;1.00;;;22.30;59.20;;;;;;4955769;28;20050;-93
2022/08/09 02:26:09;;;;;;;3.47;1.10;;;22.30;59.20;;;;;;4955426;28;20027;-92
2022/08/09 02:28:40;;;;;;;2.42;1.20;;;22.20;59.10;;;;;;4955137;28;20069;-93
2022/08/09 02:31:24;;;;;;;4.70;1.98;;;22.20;59.10;;;;;;4969940;28;20027;-94
2022/08/09 02:33:53;;;;;;;7.25;1.30;;;22.10;59.50;;;;;;4955681;28;20034;-92
2022/08/09 02:36:23;;;;;;;3.58;1.30;;;22.20;59.40;;;;;;4955746;28;20146;-92
2022/08/09 02:38:54;;;;;;;3.47;1.10;;;22.20;59.20;;;;;;4954945;28;20031;-92
2022/08/09 02:41:26;;;;;;;4.97;1.40;;;22.10;59.90;;;;;;4955666;28;20070;-92
2022/08/09 02:43:57;;;;;;;2.47;1.08;;;22.10;60.30;;;;;;4971212;28;20070;-92
2022/08/09 02:46:27;;;;;;;6.57;1.48;;;22.10;59.70;;;;;;4954596;28;20396;-93
2022/08/09 02:48:57;;;;;;;2.83;1.15;;;22.10;59.80;;;;;;4970664;28;20134;-94
2022/08/09 02:51:25;;;;;;;2.20;1.00;;;22.10;59.90;;;;;;4972099;28;20029;-93
2022/08/09 02:53:56;;;;;;;13.35;1.83;;;22.00;60.10;;;;;;4972507;28;20419;-93
2022/08/09 02:56:24;;;;;;;2.83;1.20;;;22.00;60.00;;;;;;4955228;28;20495;-93
2022/08/09 02:58:51;;;;;;;3.80;1.30;;;22.00;60.40;;;;;;4959581;28;20023;-93
2022/08/09 03:01:18;;;;;;;5.20;1.40;;;21.90;60.40;;;;;;4957644;28;20051;-93
2022/08/09 03:03:45;;;;;;;4.55;1.30;;;21.90;60.20;;;;;;4971046;28;20032;-93
2022/08/09 03:06:14;;;;;;;3.03;1.60;;;21.80;60.60;;;;;;4971164;28;20031;-93
2022/08/09 03:08:44;;;;;;;3.50;1.15;;;21.80;60.80;;;;;;4954622;28;20070;-92
2022/08/09 03:11:14;;;;;;;7.28;1.40;;;21.80;61.10;;;;;;4955039;28;20058;-93
2022/08/09 03:13:40;;;;;;;3.90;1.20;;;21.70;61.30;;;;;;4970779;28;20265;-92
2022/08/09 03:16:07;;;;;;;1.92;1.20;;;21.80;61.20;;;;;;4956506;28;20387;-92
2022/08/09 03:18:34;;;;;;;3.13;1.63;;;21.70;61.90;;;;;;4959517;28;20335;-93
2022/08/09 03:21:01;;;;;;;3.20;1.30;;;21.70;61.70;;;;;;4955760;28;20049;-94
2022/08/09 03:23:28;;;;;;;3.00;1.38;;;21.70;62.20;;;;;;4955148;28;20117;-93
2022/08/09 03:25:55;;;;;;;2.45;1.20;;;21.70;62.50;;;;;;4965891;28;20026;-93
2022/08/09 03:28:21;;;;;;;4.57;1.20;;;21.50;62.40;;;;;;4954757;28;20491;-93
2022/08/09 03:30:48;;;;;;;1.90;1.38;;;21.50;62.50;;;;;;4954304;28;20031;-94
2022/08/09 03:33:15;;;;;;;9.30;1.40;;;21.50;62.70;;;;;;4954432;28;20031;-93
2022/08/09 03:35:43;;;;;;;5.55;1.50;;;21.40;62.60;;;;;;4970364;28;20038;-92
2022/08/09 03:38:09;;;;;;;4.43;1.80;;;21.40;63.20;;;;;;4961241;28;20030;-92
2022/08/09 03:40:35;;;;;;;3.13;1.58;;;21.50;63.30;;;;;;4954775;28;20023;-93
2022/08/09 03:43:01;;;;;;;5.72;1.42;;;21.40;63.50;;;;;;4954781;28;20039;-92
2022/08/09 03:45:27;;;;;;;4.55;1.65;;;21.40;63.40;;;;;;4970753;28;20046;-93
2022/08/09 03:47:52;;;;;;;4.82;1.67;;;21.40;63.40;;;;;;4970284;28;20423;-93
2022/08/09 03:50:21;;;;;;;2.67;1.52;;;21.40;63.40;;;;;;4954592;28;20039;-93
2022/08/09 03:52:47;;;;;;;5.07;1.67;;;21.30;63.90;;;;;;4970447;28;20491;-93
2022/08/09 03:55:14;;;;;;;4.20;2.00;;;21.30;63.70;;;;;;4954379;28;20026;-93
2022/08/09 03:57:41;;;;;;;5.18;1.77;;;21.30;64.70;;;;;;4972749;28;20037;-94
2022/08/09 04:00:07;;;;;;;3.38;1.60;;;21.30;64.00;;;;;;4958002;28;20038;-92
2022/08/09 04:02:33;;;;;;;5.97;1.60;;;21.30;64.10;;;;;;4958400;28;20093;-93
2022/08/09 04:05:04;;;;;;;4.03;1.75;;;21.20;64.50;;;;;;4958240;28;20027;-93
2022/08/09 04:07:30;;;;;;;3.55;1.73;;;21.20;64.50;;;;;;4958084;28;20029;-93
2022/08/09 04:09:56;;;;;;;5.03;1.60;;;21.20;64.50;;;;;;4958140;28;20034;-93
2022/08/09 04:12:47;;;;;;;4.80;1.88;;;21.20;65.10;;;;;;4958030;28;20023;-93
2022/08/09 04:15:15;;;;;;;3.25;1.70;;;21.20;64.70;;;;;;4965009;28;20034;-92
2022/08/09 04:17:44;;;;;;;3.28;1.80;;;21.20;64.70;;;;;;4966160;28;20027;-92
2022/08/09 04:20:12;;;;;;;2.20;1.48;;;21.20;65.20;;;;;;4962403;28;20023;-92
2022/08/09 04:22:39;;;;;;;3.83;1.65;;;21.20;65.60;;;;;;4958248;28;20471;-93
2022/08/09 04:25:06;;;;;;;3.33;1.80;;;21.20;64.90;;;;;;4957940;28;20396;-93
2022/08/09 04:27:34;;;;;;;4.47;1.67;;;21.20;65.30;;;;;;4974237;28;20030;-93
2022/08/09 04:30:00;;;;;;;4.90;1.85;;;21.20;65.00;;;;;;4957535;28;20112;-92
2022/08/09 04:32:27;;;;;;;5.97;1.90;;;21.20;65.60;;;;;;4957610;28;20022;-93
2022/08/09 04:34:54;;;;;;;4.53;1.52;;;21.10;65.50;;;;;;4957458;28;20034;-94
2022/08/09 04:37:20;;;;;;;3.67;1.52;;;21.10;65.50;;;;;;4957317;28;20109;-93
2022/08/09 04:39:45;;;;;;;6.57;1.65;;;21.00;65.70;;;;;;4957844;28;20086;-93
2022/08/09 04:42:11;;;;;;;3.83;1.70;;;21.00;65.50;;;;;;4973594;28;20486;-92
2022/08/09 04:44:37;;;;;;;4.82;1.80;;;21.10;66.10;;;;;;4974779;28;20431;-93
2022/08/09 04:47:03;;;;;;;3.80;1.60;;;21.10;66.10;;;;;;4957615;28;20019;-93
2022/08/09 04:49:35;;;;;;;5.90;1.77;;;21.00;66.20;;;;;;4975249;28;20051;-92
2022/08/09 04:52:03;;;;;;;5.10;2.00;;;21.10;66.30;;;;;;4965036;28;20105;-92
2022/08/09 04:54:29;;;;;;;4.28;1.50;;;21.10;66.20;;;;;;4973359;28;20031;-93
2022/08/09 04:56:55;;;;;;;7.55;2.10;;;21.10;66.40;;;;;;4957234;28;20023;-93
2022/08/09 04:59:23;;;;;;;6.68;1.92;;;21.10;66.40;;;;;;4974396;28;20034;-93
2022/08/09 05:01:49;;;;;;;8.40;1.92;;;21.10;66.70;;;;;;4956928;28;20474;-93
2022/08/09 05:04:14;;;;;;;3.25;1.70;;;21.00;66.70;;;;;;4957135;28;20070;-92
2022/08/09 05:06:40;;;;;;;3.63;1.58;;;21.00;66.60;;;;;;4972741;28;20491;-93
2022/08/09 05:09:06;;;;;;;5.95;1.95;;;21.00;67.30;;;;;;4972448;28;20113;-93
2022/08/09 05:11:31;;;;;;;5.55;1.52;;;20.90;67.30;;;;;;4956429;28;20038;-90
2022/08/09 05:13:57;;;;;;;6.30;1.80;;;21.00;67.40;;;;;;4973545;28;20023;-88
2022/08/09 05:16:23;;;;;;;8.00;1.80;;;21.00;67.30;;;;;;4967719;28;20475;-89
2022/08/09 05:18:48;;;;;;;5.95;1.55;;;21.10;67.40;;;;;;4973226;28;20023;-90
2022/08/09 05:21:14;;;;;;;6.60;1.70;;;21.10;67.40;;;;;;4958254;28;20114;-90
2022/08/09 05:23:40;;;;;;;5.32;1.73;;;21.00;67.60;;;;;;4973058;28;20062;-87
2022/08/09 05:26:05;;;;;;;6.05;1.83;;;21.10;67.60;;;;;;4967445;28;20026;-88
2022/08/09 05:28:32;;;;;;;4.85;2.17;;;21.10;67.60;;;;;;4961534;28;20026;-88
2022/08/09 05:30:57;;;;;;;6.38;2.03;;;21.10;67.80;;;;;;4972919;28;20034;-89
2022/08/09 05:33:23;;;;;;;5.78;2.50;;;21.20;67.90;;;;;;4972903;28;20033;-91
2022/08/09 05:35:49;;;;;;;7.15;2.03;;;21.20;67.50;;;;;;4954917;28;20046;-88
2022/08/09 05:38:14;;;;;;;3.83;1.63;;;21.20;67.30;;;;;;4972646;28;20107;-90
2022/08/09 05:40:40;;;;;;;4.47;1.80;;;21.20;68.00;;;;;;4972687;28;20030;-88
2022/08/09 05:43:06;;;;;;;5.38;1.60;;;21.20;68.20;;;;;;4973146;28;20126;-88
2022/08/09 05:45:32;;;;;;;7.88;2.05;;;21.20;68.10;;;;;;4955273;28;20117;-89
2022/08/09 05:47:58;;;;;;;4.07;1.45;;;21.20;68.20;;;;;;4972715;28;20054;-87
2022/08/09 05:50:27;;;;;;;4.22;1.60;;;21.20;68.30;;;;;;4972309;28;20407;-87
2022/08/09 05:52:53;;;;;;;7.10;1.88;;;21.20;68.20;;;;;;4972265;28;20046;-89
2022/08/09 05:55:19;;;;;;;5.43;1.88;;;21.30;68.50;;;;;;4972482;28;20471;-88
2022/08/09 05:57:45;;;;;;;4.57;1.88;;;21.30;68.30;;;;;;4972373;28;20019;-87
2022/08/09 06:00:14;;;;;;;9.23;2.25;;;21.40;68.40;;;;;;4948222;28;20050;-90
2022/08/09 06:02:40;;;;;;;6.22;1.63;;;21.40;68.60;;;;;;4954950;28;20026;-89
2022/08/09 06:05:07;;;;;;;7.60;1.65;;;21.40;68.40;;;;;;4952863;28;20081;-89
2022/08/09 06:07:34;;;;;;;5.60;1.90;;;21.50;68.40;;;;;;4972385;28;20011;-88
2022/08/09 06:10:00;;;;;;;6.45;1.90;;;21.60;68.50;;;;;;4972319;28;20066;-87
2022/08/09 06:12:26;;;;;;;4.50;2.03;;;21.60;68.60;;;;;;4955025;28;20027;-87
2022/08/09 06:14:52;;;;;;;8.38;1.88;;;21.60;68.90;;;;;;4972019;28;20027;-90
2022/08/09 06:17:17;;;;;;;9.40;2.30;;;21.60;69.20;;;;;;4971857;28;20037;-88
2022/08/09 06:19:44;;;;;;;5.88;1.90;;;21.50;69.10;;;;;;4965168;28;20424;-92
2022/08/09 06:22:13;;;;;;;6.53;2.00;;;21.60;69.10;;;;;;4971943;28;20015;-89
2022/08/09 06:24:39;;;;;;;6.68;1.60;;;21.60;69.40;;;;;;4958118;28;20511;-88
2022/08/09 06:27:05;;;;;;;6.93;1.63;;;21.60;69.60;;;;;;4971760;28;20027;-89
2022/08/09 06:29:30;;;;;;;6.85;1.52;;;21.60;70.10;;;;;;4971883;28;20039;-86
2022/08/09 06:31:56;;;;;;;8.45;2.10;;;21.60;69.90;;;;;;4971684;28;20037;-88
2022/08/09 06:34:22;;;;;;;6.97;1.80;;;21.70;70.00;;;;;;4970751;28;20111;-86
2022/08/09 06:36:47;;;;;;;6.20;1.50;;;21.70;69.90;;;;;;4954115;28;20023;-86
2022/08/09 06:39:13;;;;;;;4.80;2.10;;;21.80;70.30;;;;;;4957487;28;20601;-86
2022/08/09 06:41:39;;;;;;;8.70;1.92;;;21.80;70.30;;;;;;4969654;28;20018;-86
2022/08/09 06:44:05;;;;;;;5.78;2.00;;;21.90;70.80;;;;;;4971163;28;20031;-86
2022/08/09 06:46:30;;;;;;;5.30;1.75;;;21.90;71.00;;;;;;4971473;28;20019;-87
2022/08/09 06:48:56;;;;;;;5.13;1.92;;;21.90;70.90;;;;;;4971166;28;20146;-88
2022/08/09 06:51:24;;;;;;;5.85;1.67;;;22.00;71.20;;;;;;4971236;28;20101;-83
2022/08/09 06:53:50;;;;;;;8.98;1.75;;;22.00;70.90;;;;;;4971406;28;20047;-83
2022/08/09 06:56:15;;;;;;;8.27;1.52;;;22.10;71.00;;;;;;4971230;28;20081;-83
2022/08/09 06:58:41;;;;;;;3.42;1.42;;;22.10;71.00;;;;;;4971098;28;20113;-83
2022/08/09 07:01:07;;;;;;;4.25;1.60;;;22.10;71.00;;;;;;4971611;28;20479;-83
2022/08/09 07:03:33;;;;;;;4.97;1.90;;;22.20;70.50;;;;;;4969597;28;20160;-83
2022/08/09 07:06:01;;;;;;;4.20;1.65;;;22.30;70.70;;;;;;4971092;28;20502;-83
2022/08/09 07:08:27;;;;;;;4.22;1.60;;;22.40;70.80;;;;;;4970964;28;20057;-83
2022/08/09 07:10:53;;;;;;;6.85;1.77;;;22.50;70.70;;;;;;4971081;28;20034;-83
2022/08/09 07:13:19;;;;;;;7.30;1.58;;;22.60;70.30;;;;;;4971500;28;20452;-90
2022/08/09 07:15:45;;;;;;;107.18;11.68;;;22.80;70.10;;;;;;4971084;28;20475;-86
2022/08/09 07:18:11;;;;;;;422.05;34.17;;;22.90;69.40;;;;;;4948471;28;20027;-86
2022/08/09 07:20:36;;;;;;;434.02;53.50;;;23.10;70.10;;;;;;4971014;28;20214;-88
2022/08/09 07:23:02;;;;;;;62.05;6.53;;;23.20;69.60;;;;;;4970778;28;20082;-87
2022/08/09 07:25:28;;;;;;;1999.90;459.15;;;23.30;69.30;;;;;;4970496;28;20893;-84
2022/08/09 07:27:54;;;;;;;1507.93;253.23;;;23.40;69.60;;;;;;4970822;28;20027;-88
2022/08/09 07:30:20;;;;;;;1999.90;778.75;;;23.70;69.50;;;;;;4953155;28;20090;-87
2022/08/09 07:32:45;;;;;;;565.45;58.20;;;23.80;69.40;;;;;;4953310;28;20026;-86
2022/08/09 07:35:12;;;;;;;272.20;34.53;;;23.90;68.50;;;;;;4952935;28;20043;-86
2022/08/09 07:37:40;;;;;;;3.20;1.63;;;23.90;68.50;;;;;;4970923;28;20041;-87
2022/08/09 07:40:06;;;;;;;95.47;11.98;;;24.00;68.00;;;;;;4970666;28;20037;-85
2022/08/09 07:42:31;;;;;;;18.35;2.85;;;24.00;68.50;;;;;;4970459;28;20023;-84
2022/08/09 07:44:57;;;;;;;34.55;4.22;;;24.10;68.60;;;;;;4970579;28;20475;-83
2022/08/09 07:47:23;;;;;;;49.42;6.60;;;24.20;69.00;;;;;;4970631;28;20027;-87
2022/08/09 07:49:48;;;;;;;42.20;5.03;;;24.20;68.30;;;;;;4970217;28;20093;-87
2022/08/09 07:52:14;;;;;;;22.83;4.10;;;24.20;67.80;;;;;;4970790;28;20057;-87
2022/08/09 07:54:40;;;;;;;34.65;3.15;;;24.30;68.00;;;;;;4953099;28;20435;-87
2022/08/09 07:57:06;;;;;;;13.68;2.08;;;24.20;67.90;;;;;;4970926;28;20428;-87
2022/08/09 07:59:31;;;;;;;16.52;2.40;;;24.30;67.80;;;;;;4970583;28;20030;-87
2022/08/09 08:01:57;;;;;;;14.20;1.85;;;24.30;68.50;;;;;;4970524;28;20023;-86
2022/08/09 08:04:23;;;;;;;10.20;1.67;;;24.50;67.50;;;;;;4970960;28;20049;-88
2022/08/09 08:06:48;;;;;;;6.05;1.92;;;24.50;67.10;;;;;;4970748;28;20011;-88
2022/08/09 08:09:16;;;;;;;9.40;2.25;;;24.50;67.20;;;;;;4953719;28;20380;-87
2022/08/09 08:11:42;;;;;;;7.90;1.67;;;24.60;67.50;;;;;;4970605;28;20023;-88
2022/08/09 08:14:11;;;;;;;10.10;1.80;;;24.70;66.80;;;;;;4971207;28;20027;-84
2022/08/09 08:16:58;;;;;;;5.72;1.70;;;24.80;66.20;;;;;;4971103;28;20415;-93
2022/08/09 08:19:24;;;;;;;4.53;1.48;;;24.90;66.70;;;;;;4969924;28;20533;-90
2022/08/09 08:21:51;;;;;;;4.95;1.90;;;25.00;66.60;;;;;;4954448;28;20110;-90
2022/08/09 08:24:17;;;;;;;8.38;1.60;;;25.10;66.90;;;;;;4956621;28;20090;-92
2022/08/09 08:26:43;;;;;;;7.53;1.95;;;25.30;66.70;;;;;;4971250;28;20031;-89
2022/08/09 08:29:09;;;;;;;3.38;1.40;;;25.40;66.50;;;;;;4971315;28;20503;-89
2022/08/09 08:31:34;;;;;;;3.97;1.33;;;25.50;65.80;;;;;;4972684;28;20118;-89
2022/08/09 08:34:00;;;;;;;8.52;1.60;;;25.60;65.70;;;;;;4954297;28;20054;-95
2022/08/09 08:36:26;;;;;;;8.82;1.67;;;25.80;65.10;;;;;;4971159;28;20053;-89
2022/08/09 08:38:52;;;;;;;5.05;1.58;;;25.80;64.80;;;;;;4970607;28;20538;-89
2022/08/09 08:41:19;;;;;;;5.10;1.38;;;25.90;65.20;;;;;;4970273;28;20114;-89
2022/08/09 08:43:44;;;;;;;6.82;1.40;;;26.00;64.70;;;;;;4953878;28;20054;-89
2022/08/09 08:46:11;;;;;;;5.00;1.33;;;26.00;64.30;;;;;;4973509;28;20027;-88
2022/08/09 08:48:39;;;;;;;6.53;1.60;;;26.00;64.70;;;;;;4973498;28;20097;-89
2022/08/09 08:51:05;;;;;;;6.97;1.52;;;26.00;64.40;;;;;;4973404;28;20031;-88
2022/08/09 08:53:31;;;;;;;2.50;1.42;;;26.00;64.40;;;;;;4972390;28;20027;-90
2022/08/09 08:55:57;;;;;;;4.10;1.23;;;26.00;64.30;;;;;;4973472;28;20042;-88
2022/08/09 08:58:24;;;;;;;3.28;1.42;;;26.00;64.00;;;;;;4952963;28;20588;-89
2022/08/09 09:00:49;;;;;;;4.97;1.73;;;26.00;64.20;;;;;;4973529;28;20607;-89
2022/08/09 09:03:16;;;;;;;3.60;1.75;;;26.10;63.40;;;;;;4973594;28;20114;-89
2022/08/09 09:05:44;;;;;;;8.13;1.48;;;26.20;64.00;;;;;;4958275;28;20443;-89
2022/08/09 09:08:13;;;;;;;2.67;1.52;;;26.20;64.00;;;;;;4972958;28;20023;-89
2022/08/09 09:10:42;;;;;;;4.43;1.40;;;26.30;63.60;;;;;;4971728;28;20035;-89
2022/08/09 09:13:08;;;;;;;5.70;1.30;;;26.30;63.60;;;;;;4973370;28;20031;-88
2022/08/09 09:15:34;;;;;;;3.50;1.35;;;26.50;64.00;;;;;;4973184;28;20102;-89
2022/08/09 09:17:59;;;;;;;2.78;1.50;;;26.60;63.50;;;;;;4973446;28;20034;-88
2022/08/09 09:20:25;;;;;;;6.97;1.38;;;26.70;63.00;;;;;;4950470;28;20447;-89
2022/08/09 09:22:56;;;;;;;6.82;1.42;;;26.80;62.90;;;;;;4972751;28;20101;-91
2022/08/09 09:25:34;;;;;;;6.28;1.40;;;27.00;62.30;;;;;;4955231;28;20130;-95
2022/08/09 09:28:00;;;;;;;3.17;1.50;;;27.10;61.80;;;;;;4966501;28;20026;-89
2022/08/09 09:30:26;;;;;;;3.65;1.27;;;27.10;61.80;;;;;;4955019;28;20121;-89
2022/08/09 09:33:09;;;;;;;3.30;1.30;;;27.20;61.80;;;;;;4958203;28;20106;-88
2022/08/09 09:35:50;;;;;;;3.10;1.20;;;27.30;62.00;;;;;;4972642;28;20026;-90
2022/08/09 09:38:15;;;;;;;4.10;1.33;;;27.40;61.90;;;;;;4972968;28;20086;-89
2022/08/09 09:40:43;;;;;;;5.97;1.60;;;27.60;62.00;;;;;;4972671;28;20027;-88
2022/08/09 09:43:16;;;;;;;8.90;1.30;;;27.70;61.90;;;;;;4971503;28;20066;-88
2022/08/09 09:45:52;;;;;;;7.65;1.52;;;27.70;61.50;;;;;;4972134;28;20015;-88
2022/08/09 09:48:20;;;;;;;9.00;1.45;;;27.80;61.90;;;;;;4956586;28;20042;-90
2022/08/09 09:50:49;;;;;;;8.43;1.20;;;27.90;61.70;;;;;;4972814;28;20041;-92
2022/08/09 09:53:20;;;;;;;9.30;1.40;;;28.10;61.20;;;;;;4955214;28;20029;-87
2022/08/09 09:55:59;;;;;;;158.45;14.68;;;28.30;59.80;;;;;;4972390;28;20033;-90
2022/08/09 09:58:45;;;;;;;39.40;4.50;;;28.40;60.50;;;;;;4972550;28;20396;-87
2022/08/09 10:01:21;;;;;;;5.35;1.40;;;28.40;60.50;;;;;;4968683;28;20031;-87
2022/08/09 10:03:49;;;;;;;6.75;1.20;;;28.50;60.00;;;;;;4972491;28;20109;-87
2022/08/09 10:06:15;;;;;;;6.13;1.40;;;28.60;60.50;;;;;;4972037;28;20023;-86
2022/08/09 10:08:43;;;;;;;7.05;1.27;;;28.60;60.30;;;;;;4971798;28;20092;-87
2022/08/09 10:11:17;;;;;;;3.35;1.30;;;28.60;60.30;;;;;;4954802;28;20118;-87
2022/08/09 10:13:43;;;;;;;;;;;28.70;59.70;;;;;;4955110;28;20031;-88
2022/08/09 10:16:11;;;;;;;6.35;1.17;;;28.90;58.90;;;;;;4973510;28;19906;-90
2022/08/09 10:18:37;;;;;;;18.08;1.55;;;29.00;58.90;;;;;;4972826;28;20069;-94
2022/08/09 10:21:30;;;;;;;3.72;1.17;;;29.00;59.10;;;;;;4955676;28;20128;-93
2022/08/09 10:24:01;;;;;;;2.47;1.10;;;29.10;58.70;;;;;;4955212;28;20031;-93
2022/08/09 10:26:32;;;;;;;6.00;1.40;;;29.20;59.00;;;;;;4965398;28;20278;-93
2022/08/09 10:28:58;;;;;;;6.18;1.10;;;29.20;59.00;;;;;;4957075;28;20066;-87
2022/08/09 10:31:24;;;;;;;6.03;1.50;;;29.40;58.30;;;;;;4978654;28;20046;-87
2022/08/09 10:33:50;;;;;;;6.85;1.60;;;29.60;57.80;;;;;;4982401;28;20051;-90
2022/08/09 10:36:17;;;;;;;7.88;1.13;;;29.80;57.00;;;;;;4961082;28;20030;-91
2022/08/09 10:38:45;;;;;;;3.38;1.00;;;29.90;56.90;;;;;;4972137;28;20026;-89
2022/08/09 10:41:13;;;;;;;7.32;1.17;;;30.00;57.30;;;;;;4971692;28;20147;-90
2022/08/09 10:43:45;;;;;;;5.63;1.65;;;30.20;56.70;;;;;;4952499;28;20052;-87
2022/08/09 10:46:19;;;;;;;5.68;1.20;;;30.30;56.60;;;;;;4970559;28;20026;-88
2022/08/09 10:49:02;;;;;;;4.28;1.20;;;30.40;56.60;;;;;;4969926;28;20043;-88
2022/08/09 10:51:52;;;;;;;4.60;1.25;;;30.60;55.80;;;;;;4971512;28;20031;-88
2022/08/09 10:54:33;;;;;;;5.13;1.40;;;30.60;56.10;;;;;;4971863;28;20065;-88
2022/08/09 10:57:07;;;;;;;2.42;1.27;;;30.80;56.10;;;;;;4967040;28;20113;-88
2022/08/09 10:59:36;;;;;;;6.43;1.35;;;30.90;55.90;;;;;;4971235;28;20110;-87
2022/08/09 11:02:04;;;;;;;5.10;1.40;;;31.10;56.50;;;;;;4971191;28;20050;-87
2022/08/09 11:04:30;;;;;;;7.05;1.35;;;31.20;55.70;;;;;;4971624;28;20499;-88
2022/08/09 11:06:58;;;;;;;7.53;1.15;;;31.30;55.60;;;;;;4970596;28;20027;-88
2022/08/09 11:09:39;;;;;;;3.70;0.90;;;31.50;54.60;;;;;;4969747;28;20126;-88
2022/08/09 11:12:14;;;;;;;4.22;1.10;;;31.60;54.10;;;;;;4969578;28;20113;-87
2022/08/09 11:14:55;;;;;;;4.05;1.08;;;31.70;54.30;;;;;;4969473;28;20081;-88
2022/08/09 11:17:21;;;;;;;5.22;1.30;;;31.80;54.40;;;;;;4971370;28;20031;-88
2022/08/09 11:20:02;;;;;;;3.63;1.15;;;32.00;53.80;;;;;;4971159;28;20053;-88
2022/08/09 11:22:43;;;;;;;4.15;1.10;;;32.20;53.10;;;;;;4953905;28;20431;-88
2022/08/09 11:25:15;;;;;;;4.45;0.90;;;32.20;53.90;;;;;;4969618;28;20019;-87
2022/08/09 11:27:48;;;;;;;2.70;0.93;;;32.30;52.90;;;;;;4970779;28;20023;-90
2022/08/09 11:30:31;;;;;;;9.32;1.90;;;32.40;53.10;;;;;;4970671;28;20086;-88
2022/08/09 11:33:12;;;;;;;4.95;1.33;;;32.40;52.60;;;;;;4964385;28;20019;-85
2022/08/09 11:35:52;;;;;;;4.63;0.95;;;32.60;50.60;;;;;;4970700;28;20121;-88
2022/08/09 11:38:18;;;;;;;1.80;0.80;;;32.70;50.90;;;;;;4971049;28;20031;-89
2022/08/09 11:40:44;;;;;;;6.03;0.82;;;32.80;51.20;;;;;;4970989;28;20037;-89
2022/08/09 11:43:34;;;;;;;3.60;1.08;;;32.90;51.00;;;;;;4970907;28;20252;-86
2022/08/09 11:46:01;;;;;;;2.40;1.10;;;33.00;51.30;;;;;;4953284;28;20058;-93
2022/08/09 11:48:29;;;;;;;6.00;0.70;;;33.10;50.60;;;;;;4969719;28;20074;-84
2022/08/09 11:51:05;;;;;;;14.52;1.10;;;33.20;50.10;;;;;;4970579;28;20503;-84
2022/08/09 11:53:36;;;;;;;1.70;0.77;;;33.30;49.50;;;;;;4970472;28;20019;-86
2022/08/09 11:56:14;;;;;;;8.05;1.02;;;33.50;49.10;;;;;;4963407;28;20120;-82
2022/08/09 11:58:48;;;;;;;4.90;0.93;;;33.80;49.70;;;;;;4970410;28;20103;-85
2022/08/09 12:01:16;;;;;;;2.58;0.93;;;34.00;49.60;;;;;;4949536;28;20074;-85
2022/08/09 12:03:43;;;;;;;3.28;0.90;;;34.10;48.70;;;;;;4970791;28;20360;-88
2022/08/09 12:06:18;;;;;;;4.03;0.80;;;34.10;48.90;;;;;;4970648;28;20387;-84
2022/08/09 12:08:52;;;;;;;4.47;0.90;;;34.30;48.10;;;;;;4969590;28;20031;-90
2022/08/09 12:11:21;;;;;;;5.00;0.80;;;34.40;48.70;;;;;;4972042;28;20471;-88
2022/08/09 12:13:53;;;;;;;4.30;0.73;;;34.40;47.20;;;;;;4970506;28;20049;-85
2022/08/09 12:16:22;;;;;;;6.57;0.85;;;34.50;47.20;;;;;;4971827;28;20050;-84
2022/08/09 12:18:50;;;;;;;3.08;0.80;;;34.70;47.70;;;;;;4971576;28;20491;-85
2022/08/09 12:21:32;;;;;;;9.20;0.98;;;34.70;48.00;;;;;;4975050;28;20514;-93
2022/08/09 12:24:19;;;;;;;3.67;0.90;;;34.80;47.50;;;;;;4957683;28;20109;-93
2022/08/09 12:26:49;;;;;;;1.75;0.68;;;34.90;46.80;;;;;;4956413;28;20031;-91
2022/08/09 12:29:20;;;;;;;6.03;1.00;;;35.10;47.30;;;;;;4957389;28;20646;-87
2022/08/09 12:31:48;;;;;;;3.63;0.90;;;35.20;46.80;;;;;;4974040;28;20054;-85
2022/08/09 12:34:14;;;;;;;3.50;0.80;;;35.30;47.60;;;;;;4973986;28;20022;-85
2022/08/09 12:36:55;;;;;;;7.45;0.80;;;35.60;47.20;;;;;;4973600;28;20614;-86
2022/08/09 12:39:21;;;;;;;2.30;0.60;;;35.60;46.90;;;;;;4970387;28;20039;-84
2022/08/09 12:41:47;;;;;;;6.05;0.90;;;35.80;46.70;;;;;;4972823;28;20074;-84
2022/08/09 12:44:14;;;;;;;6.60;0.82;;;35.90;46.60;;;;;;4973584;28;20081;-84
2022/08/09 12:46:43;;;;;;;8.40;0.88;;;36.10;46.00;;;;;;4979772;28;20015;-86
2022/08/09 12:49:10;;;;;;;10.20;0.77;;;36.20;46.20;;;;;;4973220;28;20049;-87
2022/08/09 12:51:36;;;;;;;3.67;0.73;;;36.30;46.40;;;;;;4975018;28;20026;-85
2022/08/09 12:54:04;;;;;;;3.33;0.80;;;36.40;46.10;;;;;;4974051;28;20038;-85